createdAt,value
2023-02-08T00:04:38.271Z,50.5
2023-02-08T00:10:15.365Z,50.4
2023-02-08T00:15:52.050Z,50.4
2023-02-08T00:21:30.413Z,50.3
2023-02-08T00:27:09.421Z,50.3
2023-02-08T00:32:47.521Z,50.3
2023-02-08T00:38:09.159Z,50.2
2023-02-08T00:43:47.390Z,50.1
2023-02-08T00:49:25.168Z,50.1
2023-02-08T00:55:02.432Z,50.1
2023-02-08T01:00:38.422Z,50
2023-02-08T01:06:31.696Z,49.9
2023-02-08T01:12:09.513Z,49.9
2023-02-08T01:17:30.529Z,49.8
2023-02-08T01:22:37.088Z,49.8
2023-02-08T01:28:15.244Z,49.7
2023-02-08T01:33:37.353Z,49.7
2023-02-08T01:38:58.632Z,49.6
2023-02-08T01:44:21.287Z,49.6
2023-02-08T01:49:58.818Z,49.5
2023-02-08T01:55:35.270Z,49.5
2023-02-08T02:01:13.808Z,49.4
2023-02-08T02:06:50.369Z,49.4
2023-02-08T02:12:27.107Z,49.3
2023-02-08T02:18:04.878Z,49.3
2023-02-08T02:23:44.869Z,49.2
2023-02-08T02:29:21.096Z,49.2
2023-02-08T02:34:59.271Z,49.1
2023-02-08T02:40:35.538Z,49.1
2023-02-08T02:46:12.376Z,48.7
2023-02-08T02:51:49.988Z,47.6
2023-02-08T02:57:11.383Z,48.8
2023-02-08T03:02:32.798Z,50.3
2023-02-08T03:07:55.960Z,51.8
2023-02-08T03:13:31.905Z,53.3
2023-02-08T03:19:07.905Z,54.9
2023-02-08T03:24:45.512Z,56.5
2023-02-08T03:30:06.172Z,58.1
2023-02-08T03:35:28.523Z,59.4
2023-02-08T03:41:06.926Z,59.6
2023-02-08T03:46:43.474Z,59.6
2023-02-08T03:52:20.162Z,59.6
2023-02-08T03:57:57.714Z,59.5
2023-02-08T04:03:19.594Z,59.5
2023-02-08T04:08:40.397Z,59.4
2023-02-08T04:14:18.068Z,59.4
2023-02-08T04:19:53.866Z,59.4
2023-02-08T04:25:30.467Z,59.3
2023-02-08T04:31:08.851Z,59.3
2023-02-08T04:36:46.553Z,59.2
2023-02-08T04:42:23.342Z,59.2
2023-02-08T04:48:01.400Z,59.1
2023-02-08T04:53:39.811Z,59.1
2023-02-08T04:59:17.670Z,59
2023-02-08T05:04:54.900Z,59
2023-02-08T05:10:31.492Z,58.9
2023-02-08T05:16:11.545Z,58.9
2023-02-08T05:21:49.555Z,58.8
2023-02-08T05:27:27.246Z,58.8
2023-02-08T05:33:05.902Z,58.8
2023-02-08T05:38:44.232Z,58.7
2023-02-08T05:44:21.194Z,58.6
2023-02-08T05:55:08.201Z,58.5
2023-02-08T06:00:44.855Z,58.4
2023-02-08T06:06:07.298Z,58.4
2023-02-08T06:11:30.016Z,58.4
2023-02-08T06:17:09.657Z,58.3
2023-02-08T06:22:48.055Z,58.3
2023-02-08T06:28:24.208Z,58.2
2023-02-08T06:34:05.255Z,58.1
2023-02-08T06:39:43.427Z,58.1
2023-02-08T06:45:30.223Z,58.1
2023-02-08T06:51:07.243Z,58
2023-02-08T06:56:44.574Z,57.9
2023-02-08T07:02:22.148Z,57.9
2023-02-08T07:08:06.663Z,57.9
2023-02-08T07:13:43.411Z,57.8
2023-02-08T07:24:42.094Z,57.7
2023-02-08T07:30:18.705Z,57.7
2023-02-08T07:35:59.214Z,57.6
2023-02-08T07:41:34.666Z,57.6
2023-02-08T07:47:11.468Z,57.5
2023-02-08T07:52:48.406Z,57.5
2023-02-08T07:58:26.810Z,57.4
2023-02-08T08:04:13.202Z,57.4
2023-02-08T08:09:53.196Z,57.3
2023-02-08T08:15:14.579Z,57.3
2023-02-08T08:20:53.894Z,57.3
2023-02-08T08:26:30.395Z,57.2
2023-02-08T08:32:11.801Z,57.1
2023-02-08T08:37:48.979Z,57.1
2023-02-08T08:43:27.219Z,57
2023-02-08T08:48:48.289Z,56.9
2023-02-08T08:54:25.939Z,56.9
2023-02-08T08:59:47.035Z,56.9
2023-02-08T09:05:24.326Z,56.8
2023-02-08T09:11:01.330Z,56.8
2023-02-08T09:16:40.996Z,56.7
2023-02-08T09:22:18.397Z,56.7
2023-02-08T09:27:56.199Z,56.9
2023-02-08T09:33:20.273Z,57.1
2023-02-08T09:38:57.084Z,57.1
2023-02-08T09:44:17.848Z,57.1
2023-02-08T09:50:06.326Z,57.1
2023-02-08T09:55:42.927Z,57
2023-02-08T10:01:07.356Z,57
2023-02-08T10:06:45.592Z,56.9
2023-02-08T10:12:16.713Z,57.3
2023-02-08T10:17:52.103Z,57.6
2023-02-08T10:23:30.004Z,57.9
2023-02-08T10:28:52.533Z,58.2
2023-02-08T10:34:32.584Z,58.4
2023-02-08T10:40:28.465Z,58.5
2023-02-08T10:46:29.877Z,58.4
2023-02-08T10:52:12.925Z,58.4
2023-02-08T10:57:56.461Z,58.4
2023-02-08T11:03:28.948Z,58.4
2023-02-08T11:09:13.648Z,58.3
2023-02-08T11:15:04.164Z,58.3
2023-02-08T11:20:47.389Z,58.3
2023-02-08T11:26:30.784Z,58.4
2023-02-08T11:32:15.299Z,58.4
2023-02-08T11:37:58.265Z,58.4
2023-02-08T11:43:41.533Z,58.4
2023-02-08T11:49:23.769Z,58.4
2023-02-08T11:54:47.204Z,58.4
2023-02-08T12:00:23.935Z,58.3
2023-02-08T12:05:15.736Z,58.3
2023-02-08T12:10:53.685Z,58.4
2023-02-08T12:16:48.908Z,58.4
2023-02-08T12:22:27.425Z,58.4
2023-02-08T12:28:06.877Z,58.4
2023-02-08T12:33:59.258Z,58.3
2023-02-08T12:40:11.770Z,58.3
2023-02-08T12:45:50.752Z,58.3
2023-02-08T12:51:42.881Z,58.3
2023-02-08T12:57:18.110Z,58.2
2023-02-08T13:02:54.181Z,58.2
2023-02-08T13:08:39.061Z,58.1
2023-02-08T13:14:27.337Z,58.1
2023-02-08T13:20:32.383Z,58
2023-02-08T13:26:32.290Z,57.9
2023-02-08T13:32:12.388Z,57.9
2023-02-08T13:38:13.884Z,57.9
2023-02-08T13:44:07.271Z,57.8
2023-02-08T13:49:45.961Z,57.8
2023-02-08T14:00:44.390Z,57.7
2023-02-08T14:06:21.765Z,57.7
2023-02-08T14:12:00.632Z,57.6
2023-02-08T14:17:23.766Z,57.6
2023-02-08T14:23:02.557Z,57.5
2023-02-08T14:28:39.364Z,57.4
2023-02-08T14:34:15.630Z,57.4
2023-02-08T14:40:02.684Z,57.4
2023-02-08T14:45:24.792Z,57.3
2023-02-08T14:51:04.690Z,57.3
2023-02-08T14:56:26.365Z,57.3
2023-02-08T15:01:48.268Z,57.2
2023-02-08T15:07:32.397Z,57.1
2023-02-08T15:13:10.667Z,57.1
2023-02-08T15:18:52.003Z,57.1
2023-02-08T15:24:29.599Z,56.9
2023-02-08T15:30:17.297Z,56.9
2023-02-08T15:35:55.223Z,56.8
2023-02-08T15:41:32.797Z,56.8
2023-02-08T15:47:10.625Z,56.8
2023-02-08T15:52:47.661Z,56.7
2023-02-08T15:58:20.215Z,56.6
2023-02-08T16:03:43.049Z,56.6
2023-02-08T16:09:05.325Z,56.5
2023-02-08T16:14:29.087Z,56.4
2023-02-08T16:20:26.508Z,56.4
2023-02-08T16:25:50.875Z,56.4
2023-02-08T16:31:29.279Z,56.3
2023-02-08T16:37:07.458Z,56.3
2023-02-08T16:43:01.328Z,56.2
2023-02-08T16:48:51.188Z,56.1
2023-02-08T16:54:34.127Z,56.1
2023-02-08T16:59:55.049Z,56.1
2023-02-08T17:05:36.671Z,56
2023-02-08T17:11:13.315Z,55.9
2023-02-08T17:17:02.422Z,55.9
2023-02-08T17:22:40.714Z,55.9
2023-02-08T17:28:20.952Z,55.8
2023-02-08T17:33:44.246Z,55.8
2023-02-08T17:39:21.632Z,55.7
2023-02-08T17:44:59.006Z,55.7
2023-02-08T17:50:20.905Z,55.6
2023-02-08T17:55:45.550Z,55.6
2023-02-08T18:01:27.344Z,55.5
2023-02-08T18:07:06.018Z,55.5
2023-02-08T18:12:44.074Z,55.4
2023-02-08T18:18:22.579Z,55.3
2023-02-08T18:24:00.318Z,55.3
2023-02-08T18:29:22.549Z,55.3
2023-02-08T18:35:03.694Z,55.2
2023-02-08T18:40:42.215Z,55.1
2023-02-08T18:46:20.098Z,55.1
2023-02-08T18:52:12.466Z,55.1
2023-02-08T18:57:52.989Z,55
2023-02-08T19:03:16.398Z,54.9
2023-02-08T19:08:54.333Z,54.9
2023-02-08T19:14:32.417Z,54.9
2023-02-08T19:20:09.684Z,54.8
2023-02-08T19:25:47.668Z,54.8
2023-02-08T19:31:09.946Z,54.8
2023-02-08T19:36:47.762Z,54.7
2023-02-08T19:42:25.528Z,54.6
2023-02-08T19:48:23.320Z,54.6
2023-02-08T19:54:00.704Z,54.5
2023-02-08T19:59:06.869Z,54.4
2023-02-08T20:05:01.417Z,54.4
2023-02-08T20:10:38.779Z,54.4
2023-02-08T20:16:31.275Z,54.3
2023-02-08T20:22:09.472Z,54.3
2023-02-08T20:27:54.559Z,54.2
2023-02-08T20:33:32.807Z,54.2
2023-02-08T20:39:26.219Z,54.1
2023-02-08T20:45:03.541Z,54.1
2023-02-08T20:50:57.007Z,54
2023-02-08T20:56:34.448Z,54
2023-02-08T21:02:21.655Z,53.9
2023-02-08T21:07:43.904Z,53.9
2023-02-08T21:13:22.975Z,53.9
2023-02-08T21:19:03.423Z,53.8
2023-02-08T21:24:41.049Z,53.8
2023-02-08T21:30:18.965Z,53.7
2023-02-08T21:35:59.386Z,53.7
2023-02-08T21:41:36.607Z,53.6
2023-02-08T21:47:14.621Z,53.6
2023-02-08T21:52:36.294Z,53.5
2023-02-08T21:58:15.675Z,53.4
2023-02-08T22:03:53.681Z,53.4
2023-02-08T22:09:14.906Z,53.4
2023-02-08T22:14:55.425Z,53.3
2023-02-08T22:20:33.546Z,53.3
2023-02-08T22:26:10.162Z,53.3
2023-02-08T22:31:50.138Z,53.2
2023-02-08T22:37:12.134Z,53.2
2023-02-08T22:42:49.021Z,53.1
2023-02-08T22:48:26.441Z,53.1
2023-02-08T22:54:03.902Z,53
2023-02-08T22:59:40.424Z,52.9
2023-02-08T23:05:18.024Z,52.9
2023-02-08T23:10:55.223Z,52.9
2023-02-08T23:16:32.348Z,52.8
2023-02-08T23:22:12.778Z,52.8
2023-02-08T23:27:49.951Z,52.8
2023-02-08T23:33:27.044Z,52.7
2023-02-08T23:38:48.414Z,52.6
2023-02-08T23:44:26.511Z,52.6
2023-02-08T23:49:48.542Z,52.5
2023-02-08T23:55:26.343Z,52.5
